Time;durP1;ratioP1;P1;durP2;ratioP2;P2;SDS_P1;SDS_P2;PMS_P1;PMS_P2;Temp;Humidity;BMP_temperature;BMP_pressure;BME280_temperature;BME280_humidity;BME280_pressure;Samples;Min_cycle;Max_cycle;Signal;HPM_P1;HPM_P2
2023/01/13 00:01:00;;;;;;;35.70;32.17;;;;;;;8.01;100.00;99648.88;5017292;28;20452;-47
2023/01/13 00:03:27;;;;;;;33.17;30.00;;;;;;;7.99;100.00;99642.16;5016396;28;20473;-46
2023/01/13 00:05:58;;;;;;;34.93;31.27;;;;;;;7.96;100.00;99634.59;5017646;28;20437;-48
2023/01/13 00:08:26;;;;;;;34.13;30.07;;;;;;;7.90;100.00;99632.75;5018686;28;20460;-46
2023/01/13 00:10:54;;;;;;;34.03;31.03;;;;;;;7.87;100.00;99618.06;5017900;28;20507;-46
2023/01/13 00:13:25;;;;;;;35.70;31.90;;;;;;;7.82;100.00;99621.31;5016993;28;20527;-46
2023/01/13 00:15:56;;;;;;;36.00;32.40;;;;;;;7.78;100.00;99625.44;5017886;28;20838;-50
2023/01/13 00:18:25;;;;;;;36.93;33.20;;;;;;;7.76;100.00;99629.31;5017879;28;20430;-48
2023/01/13 00:21:05;;;;;;;36.73;32.90;;;;;;;7.74;100.00;99631.34;5017190;28;20503;-44
2023/01/13 00:23:34;;;;;;;35.13;32.10;;;;;;;7.68;100.00;99630.31;5019081;28;20495;-45
2023/01/13 00:26:04;;;;;;;42.10;31.73;;;;;;;7.63;100.00;99626.66;5021498;28;20432;-46
2023/01/13 00:28:32;;;;;;;34.63;31.40;;;;;;;7.58;100.00;99618.50;5021603;28;20440;-45
2023/01/13 00:31:05;;;;;;;34.90;31.73;;;;;;;7.52;100.00;99612.19;5021535;28;20564;-50
2023/01/13 00:33:33;;;;;;;44.30;34.10;;;;;;;7.48;100.00;99618.09;5021838;28;20472;-45
2023/01/13 00:36:04;;;;;;;36.20;32.70;;;;;;;7.44;100.00;99627.47;5021099;28;20846;-49
2023/01/13 00:38:33;;;;;;;35.77;32.30;;;;;;;7.41;100.00;99620.72;5013027;28;20514;-46
2023/01/13 00:41:02;;;;;;;35.00;31.80;;;;;;;7.40;100.00;99619.13;5012497;28;20461;-45
2023/01/13 00:43:31;;;;;;;35.20;31.67;;;;;;;7.42;100.00;99626.84;5020950;28;20833;-49
2023/01/13 00:45:59;;;;;;;35.17;30.60;;;;;;;7.43;100.00;99631.97;5021174;28;20433;-46
2023/01/13 00:48:27;;;;;;;33.60;30.23;;;;;;;7.45;100.00;99642.34;5020924;28;20429;-46
2023/01/13 00:50:56;;;;;;;34.80;31.57;;;;;;;7.47;100.00;99630.53;5020989;28;20533;-46
2023/01/13 00:53:26;;;;;;;36.73;33.00;;;;;;;7.51;100.00;99650.34;5020371;28;20531;-47
2023/01/13 00:56:01;;;;;;;36.20;32.93;;;;;;;7.53;100.00;99635.00;5021786;28;20440;-46
2023/01/13 00:58:31;;;;;;;40.70;33.00;;;;;;;7.56;100.00;99616.03;5021506;28;20455;-49
2023/01/13 01:01:00;;;;;;;34.33;31.47;;;;;;;7.55;100.00;99616.25;5021494;28;20448;-51
2023/01/13 01:03:28;;;;;;;34.33;31.37;;;;;;;7.51;100.00;99620.31;5020958;28;20592;-46
2023/01/13 01:05:56;;;;;;;34.67;31.63;;;;;;;7.48;100.00;99620.72;5021434;28;20444;-45
2023/01/13 01:08:25;;;;;;;34.67;31.60;;;;;;;7.49;100.00;99609.13;5020929;28;20432;-50
2023/01/13 01:11:01;;;;;;;34.80;31.63;;;;;;;7.49;100.00;99622.38;5020433;28;20452;-47
2023/01/13 01:13:28;;;;;;;39.40;32.90;;;;;;;7.50;100.00;99626.66;5021014;28;20472;-45
2023/01/13 01:15:56;;;;;;;36.07;32.90;;;;;;;7.50;100.00;99624.81;5020488;28;20954;-46
2023/01/13 01:18:24;;;;;;;35.73;32.20;;;;;;;7.53;100.00;99628.88;5021107;28;20436;-47
2023/01/13 01:20:52;;;;;;;34.20;31.13;;;;;;;7.53;100.00;99626.25;5021654;28;20833;-48
2023/01/13 01:23:19;;;;;;;35.87;32.77;;;;;;;7.52;100.00;99627.28;5020288;28;21124;-48
2023/01/13 01:25:48;;;;;;;45.37;32.30;;;;;;;7.55;100.00;99642.78;5021009;28;20496;-44
2023/01/13 01:28:17;;;;;;;35.87;32.10;;;;;;;7.53;100.00;99637.66;5020407;28;20448;-51
2023/01/13 01:30:44;;;;;;;35.90;32.57;;;;;;;7.56;100.00;99644.41;5023409;28;20457;-49
2023/01/13 01:33:12;;;;;;;34.63;31.30;;;;;;;7.56;100.00;99645.22;5024599;28;20465;-50
2023/01/13 01:35:40;;;;;;;34.17;30.93;;;;;;;7.55;100.00;99646.25;5024491;28;20530;-50
2023/01/13 01:38:08;;;;;;;35.10;31.47;;;;;;;7.53;100.00;99650.94;5022310;28;20436;-47
2023/01/13 01:40:36;;;;;;;38.07;33.20;;;;;;;7.53;100.00;99640.31;5012758;28;20458;-46
2023/01/13 01:45:58;;;;;;;36.17;32.77;;;;;;;7.53;100.00;99639.50;5005013;28;20434;-49
2023/01/13 01:48:28;;;;;;;34.43;31.03;;;;;;;7.53;100.00;99634.19;5005544;28;20438;-46
2023/01/13 01:50:56;;;;;;;36.37;32.73;;;;;;;7.51;100.00;99636.25;5004193;28;20481;-46
2023/01/13 01:53:26;;;;;;;33.57;30.60;;;;;;;7.47;100.00;99630.53;5004749;28;20991;-47
2023/01/13 01:55:55;;;;;;;36.63;32.73;;;;;;;7.43;100.00;99644.41;5005253;28;20481;-46
2023/01/13 01:58:29;;;;;;;35.60;31.73;;;;;;;7.35;100.00;99637.44;5005514;28;20850;-49
2023/01/13 02:00:57;;;;;;;34.87;31.70;;;;;;;7.30;100.00;99639.91;5004214;28;20529;-51
2023/01/13 02:03:25;;;;;;;34.50;31.67;;;;;;;7.22;100.00;99638.28;5004164;28;20461;-47
2023/01/13 02:05:53;;;;;;;35.90;32.10;;;;;;;7.22;100.00;99635.63;5004593;28;20473;-46
2023/01/13 02:08:21;;;;;;;35.33;31.40;;;;;;;7.22;100.00;99638.28;5004828;28;20457;-47
2023/01/13 02:10:53;;;;;;;38.60;32.67;;;;;;;7.20;100.00;99637.63;5004742;28;20454;-53
2023/01/13 02:13:22;;;;;;;39.80;33.60;;;;;;;7.22;100.00;99638.28;5004419;28;20468;-49
2023/01/13 02:15:57;;;;;;;39.70;32.37;;;;;;;7.24;100.00;99638.88;5004456;28;20532;-51
2023/01/13 02:18:36;;;;;;;43.13;34.70;;;;;;;7.23;100.00;99631.94;5005035;28;20491;-50
2023/01/13 02:21:27;;;;;;;36.27;32.73;;;;;;;7.17;100.00;99629.25;5005035;28;20446;-46
2023/01/13 02:27:31;;;;;;;40.63;33.17;;;;;;;7.04;100.00;99638.03;5004997;28;20490;-50
2023/01/13 02:33:08;;;;;;;35.97;32.03;;;;;;;6.95;100.00;99641.88;5004096;28;20468;-48
2023/01/13 02:35:43;;;;;;;36.40;32.67;;;;;;;6.90;100.00;99640.84;5004353;28;21038;-47
2023/01/13 02:38:13;;;;;;;37.17;31.87;;;;;;;6.85;100.00;99646.72;4999492;28;20432;-46
2023/01/13 02:40:47;;;;;;;35.90;32.33;;;;;;;6.81;100.00;99644.69;5017067;28;21887;-51
2023/01/13 02:46:15;;;;;;;37.43;32.37;;;;;;;6.70;100.00;99638.09;5022834;28;20456;-46
2023/01/13 02:48:45;;;;;;;37.40;33.20;;;;;;;6.69;100.00;99641.75;5024272;28;20483;-46
2023/01/13 02:51:17;;;;;;;47.77;34.47;;;;;;;6.69;100.00;99647.88;5023170;28;20445;-47
2023/01/13 02:53:50;;;;;;;43.70;33.47;;;;;;;6.70;100.00;99643.41;5022620;28;20437;-45
2023/01/13 02:56:20;;;;;;;37.87;32.73;;;;;;;6.75;100.00;99654.22;5023722;28;20469;-48
2023/01/13 02:58:48;;;;;;;43.90;34.03;;;;;;;6.80;100.00;99662.41;5023889;28;20806;-47
2023/01/13 03:01:17;;;;;;;41.77;33.70;;;;;;;6.85;100.00;99667.94;5023629;28;20457;-49
2023/01/13 03:03:45;;;;;;;37.67;32.60;;;;;;;6.86;100.00;99642.25;5023470;28;20445;-45
2023/01/13 03:06:30;;;;;;;36.80;33.23;;;;;;;6.84;100.00;99634.47;5023301;28;20457;-45
2023/01/13 03:09:03;;;;;;;36.33;32.00;;;;;;;6.83;100.00;99646.13;5023471;28;20427;-46
2023/01/13 03:11:39;;;;;;;38.23;33.90;;;;;;;6.83;100.00;99638.16;5023252;28;20476;-51
2023/01/13 03:14:20;;;;;;;38.00;32.83;;;;;;;6.86;100.00;99643.06;5022965;28;20500;-49
2023/01/13 03:17:02;;;;;;;42.60;33.10;;;;;;;6.92;100.00;99638.81;5022929;28;20447;-47
2023/01/13 03:19:38;;;;;;;36.40;32.53;;;;;;;6.92;100.00;99623.72;5022989;28;20783;-47
2023/01/13 03:22:15;;;;;;;41.07;33.67;;;;;;;6.94;100.00;99623.50;5023114;28;20541;-46
2023/01/13 03:24:49;;;;;;;45.67;32.50;;;;;;;6.93;100.00;99630.63;5022753;28;20429;-46
2023/01/13 03:27:24;;;;;;;36.90;32.70;;;;;;;6.90;100.00;99625.75;5023463;28;20794;-46
2023/01/13 03:29:58;;;;;;;37.20;33.37;;;;;;;6.86;100.00;99634.31;5023161;28;20447;-48
2023/01/13 03:32:31;;;;;;;37.33;33.50;;;;;;;6.86;100.00;99639.59;5021833;28;20465;-49
2023/01/13 03:35:07;;;;;;;35.93;32.30;;;;;;;6.81;100.00;99644.69;5022433;28;20469;-46
2023/01/13 03:37:38;;;;;;;38.10;32.93;;;;;;;6.76;100.00;99642.63;5016875;28;20437;-46
2023/01/13 03:40:13;;;;;;;36.67;32.73;;;;;;;6.75;100.00;99630.38;5011150;28;20436;-46
2023/01/13 03:44:20;;;;;;;37.57;33.60;;;;;;;6.75;100.00;99627.72;5002322;28;20474;-48
2023/01/13 03:45:34;;;;;;;37.17;33.43;;;;;;;6.77;100.00;99633.66;5003710;28;20449;-47
2023/01/13 03:48:09;;;;;;;36.50;32.60;;;;;;;6.79;100.00;99625.50;5002818;28;20827;-48
2023/01/13 03:50:40;;;;;;;36.97;33.40;;;;;;;6.81;100.00;99640.19;5002975;28;20406;-47
2023/01/13 03:53:13;;;;;;;42.37;34.63;;;;;;;6.84;100.00;99639.00;5003045;28;20468;-49
2023/01/13 03:55:46;;;;;;;44.13;33.57;;;;;;;6.86;100.00;99643.06;5002686;28;20469;-48
2023/01/13 03:58:20;;;;;;;39.20;33.13;;;;;;;6.90;100.00;99648.78;5002164;28;20437;-47
2023/01/13 04:00:53;;;;;;;41.67;35.37;;;;;;;6.92;100.00;99625.56;4995037;28;20505;-48
2023/01/13 04:03:27;;;;;;;36.40;31.40;;;;;;;6.94;100.00;99634.09;5000319;28;20516;-46
2023/01/13 04:06:04;;;;;;;37.50;32.07;;;;;;;6.94;100.00;99634.09;5000583;28;20437;-45
2023/01/13 04:08:36;;;;;;;41.50;33.87;;;;;;;6.94;100.00;99623.50;5002949;28;20466;-44
2023/01/13 04:11:10;;;;;;;40.43;33.73;;;;;;;6.92;100.00;99609.66;5003208;28;20461;-46
2023/01/13 04:13:41;;;;;;;37.43;33.23;;;;;;;6.91;100.00;99597.41;5002094;28;20529;-44
2023/01/13 04:16:11;;;;;;;36.57;32.83;;;;;;;6.87;100.00;99612.09;5002960;28;20474;-48
2023/01/13 04:18:40;;;;;;;35.90;32.37;;;;;;;6.82;100.00;99603.91;5002922;28;20422;-49
2023/01/13 04:21:08;;;;;;;35.87;32.23;;;;;;;6.78;100.00;99598.19;5002870;28;20463;-47
2023/01/13 04:23:36;;;;;;;40.63;34.00;;;;;;;6.74;100.00;99602.28;4996871;28;20988;-44
2023/01/13 04:26:03;;;;;;;44.77;32.70;;;;;;;6.74;100.00;99610.22;4992054;28;20433;-45
2023/01/13 04:28:32;;;;;;;45.00;35.10;;;;;;;6.72;100.00;99600.84;4991744;28;20438;-45
2023/01/13 04:30:59;;;;;;;38.57;34.30;;;;;;;6.67;100.00;99601.41;4991723;28;20896;-44
2023/01/13 04:33:28;;;;;;;37.30;33.50;;;;;;;6.61;100.00;99597.75;4991295;28;20508;-46
2023/01/13 04:35:57;;;;;;;38.80;34.87;;;;;;;6.59;100.00;99598.97;4991144;28;20474;-44
2023/01/13 04:38:24;;;;;;;39.53;34.60;;;;;;;6.60;100.00;99600.59;4988231;28;20464;-47
2023/01/13 04:40:52;;;;;;;39.80;33.60;;;;;;;6.57;100.00;99603.66;5003211;28;20511;-45
2023/01/13 04:43:20;;;;;;;37.03;33.00;;;;;;;6.53;100.00;99600.56;5010775;28;20457;-44
2023/01/13 04:45:47;;;;;;;38.33;32.20;;;;;;;6.50;100.00;99592.19;5010950;28;20791;-44
2023/01/13 04:48:15;;;;;;;40.27;34.57;;;;;;;6.51;100.00;99596.50;5011048;28;20760;-49
2023/01/13 04:50:43;;;;;;;44.33;34.83;;;;;;;6.49;100.00;99587.91;5011366;28;20484;-46
2023/01/13 04:53:12;;;;;;;39.13;33.40;;;;;;;6.50;100.00;99600.97;5011027;28;20498;-46
2023/01/13 04:55:39;;;;;;;43.60;33.90;;;;;;;6.50;100.00;99606.25;5010825;28;21028;-46
2023/01/13 04:58:09;;;;;;;35.40;32.10;;;;;;;6.50;100.00;99606.25;5010700;28;20440;-48
2023/01/13 05:00:37;;;;;;;36.60;32.83;;;;;;;6.47;100.00;99601.34;5010872;28;20436;-46
2023/01/13 05:03:05;;;;;;;37.03;33.00;;;;;;;6.46;100.00;99602.38;5010575;28;20874;-49
2023/01/13 05:05:33;;;;;;;45.97;34.00;;;;;;;6.43;100.00;99608.06;5011093;28;20803;-44
2023/01/13 05:08:00;;;;;;;38.80;35.17;;;;;;;6.43;100.00;99607.22;5011258;28;20957;-47
2023/01/13 05:10:29;;;;;;;38.87;34.70;;;;;;;6.40;100.00;99595.22;5014124;28;20433;-44
2023/01/13 05:18:30;;;;;;;38.90;34.87;;;;;;;6.38;100.00;99594.59;5014498;28;20491;-44
2023/01/13 05:20:58;;;;;;;46.77;36.20;;;;;;;6.39;100.00;99592.78;5014431;28;20539;-46
2023/01/13 05:26:12;;;;;;;47.97;37.40;;;;;;;6.49;100.00;99596.66;5014311;28;20447;-45
2023/01/13 05:28:40;;;;;;;38.03;34.20;;;;;;;6.52;100.00;99584.88;5014193;28;20495;-44
2023/01/13 05:31:07;;;;;;;38.50;34.40;;;;;;;6.54;100.00;99583.66;5014086;28;20463;-44
2023/01/13 05:33:35;;;;;;;49.57;35.07;;;;;;;6.58;100.00;99584.88;5013678;28;20556;-44
2023/01/13 05:36:04;;;;;;;49.23;36.50;;;;;;;6.60;100.00;99584.72;5013786;28;20483;-44
2023/01/13 05:38:32;;;;;;;41.40;35.07;;;;;;;6.58;100.00;99573.47;5005738;28;20473;-47
2023/01/13 05:43:47;;;;;;;38.77;34.80;;;;;;;6.58;100.00;99586.72;5013669;28;20938;-46
2023/01/13 05:46:16;;;;;;;39.00;34.80;;;;;;;6.60;100.00;99577.56;5013639;28;20439;-48
2023/01/13 05:48:44;;;;;;;36.27;32.80;;;;;;;6.63;100.00;99561.25;5013740;28;20455;-44
2023/01/13 05:51:13;;;;;;;41.33;33.97;;;;;;;6.65;100.00;99575.13;5013824;28;20460;-48
2023/01/13 05:53:41;;;;;;;45.83;34.47;;;;;;;6.68;100.00;99576.56;5013083;28;20461;-46
2023/01/13 05:56:09;;;;;;;38.23;33.83;;;;;;;6.70;100.00;99574.53;5013317;28;20867;-50
2023/01/13 05:58:37;;;;;;;36.53;32.67;;;;;;;6.75;100.00;99564.13;5013592;28;20429;-48
2023/01/13 06:01:08;;;;;;;35.93;32.63;;;;;;;6.82;100.00;99566.81;5013700;28;20472;-46
2023/01/13 06:03:36;;;;;;;42.43;34.13;;;;;;;6.83;100.00;99566.63;5013026;28;20463;-44
2023/01/13 06:06:04;;;;;;;37.27;33.40;;;;;;;6.83;100.00;99563.16;5013634;28;20429;-44
2023/01/13 06:08:32;;;;;;;38.40;33.83;;;;;;;6.83;100.00;99553.38;5013251;28;20441;-44
2023/01/13 06:11:00;;;;;;;38.07;34.30;;;;;;;6.83;100.00;99565.81;5013221;28;20966;-46
2023/01/13 06:13:28;;;;;;;40.00;35.50;;;;;;;6.81;100.00;99565.97;5013001;28;20461;-43
2023/01/13 06:15:57;;;;;;;37.23;33.63;;;;;;;6.78;100.00;99558.44;5012834;28;20448;-47
2023/01/13 06:18:28;;;;;;;38.20;34.30;;;;;;;6.77;100.00;99569.25;5013172;28;20807;-48
2023/01/13 06:20:56;;;;;;;37.63;33.87;;;;;;;6.79;100.00;99567.22;5012244;28;20449;-45
2023/01/13 06:23:23;;;;;;;44.80;34.00;;;;;;;6.79;100.00;99573.34;5012980;28;20460;-47
2023/01/13 06:26:01;;;;;;;36.10;32.60;;;;;;;6.78;100.00;99561.09;5013319;28;20433;-44
2023/01/13 06:28:28;;;;;;;37.90;33.77;;;;;;;6.77;100.00;99548.88;5012840;28;20444;-45
2023/01/13 06:31:02;;;;;;;36.50;33.10;;;;;;;6.77;100.00;99559.47;5012940;28;20631;-46
2023/01/13 06:33:35;;;;;;;37.30;33.07;;;;;;;6.75;100.00;99556.19;5012689;28;20552;-45
2023/01/13 06:36:07;;;;;;;37.13;32.63;;;;;;;6.80;100.00;99564.38;5012703;28;20429;-43
2023/01/13 06:38:37;;;;;;;36.20;32.00;;;;;;;6.80;100.00;99560.91;5004629;28;20441;-44
2023/01/13 06:41:07;;;;;;;39.80;35.77;;;;;;;6.83;100.00;99555.19;5004759;28;20468;-46
2023/01/13 06:43:34;;;;;;;40.07;33.40;;;;;;;6.83;100.00;99557.84;5012224;28;20458;-44
2023/01/13 06:46:02;;;;;;;35.70;32.57;;;;;;;6.86;100.00;99558.28;5012690;28;21175;-45
2023/01/13 06:48:34;;;;;;;38.13;33.93;;;;;;;6.86;100.00;99552.97;5012712;28;20515;-44
2023/01/13 06:51:02;;;;;;;35.17;32.00;;;;;;;6.84;100.00;99560.28;5012528;28;20472;-48
2023/01/13 06:53:29;;;;;;;39.00;34.87;;;;;;;6.80;100.00;99551.13;5012099;28;20468;-43
2023/01/13 06:55:57;;;;;;;38.23;34.17;;;;;;;6.76;100.00;99554.38;5012387;28;20934;-44
2023/01/13 06:58:24;;;;;;;37.83;33.50;;;;;;;6.72;100.00;99547.84;5012577;28;20500;-46
2023/01/13 07:00:52;;;;;;;37.90;32.33;;;;;;;6.74;100.00;99543.97;5012319;28;20966;-46
2023/01/13 07:03:20;;;;;;;36.87;33.77;;;;;;;6.78;100.00;99555.00;5011972;28;20457;-44
2023/01/13 07:05:54;;;;;;;37.10;33.13;;;;;;;6.82;100.00;99561.50;5012330;28;20955;-43
2023/01/13 07:08:22;;;;;;;36.07;32.23;;;;;;;6.84;100.00;99554.19;5012737;28;20520;-44
2023/01/13 07:10:50;;;;;;;37.50;33.47;;;;;;;6.85;100.00;99545.22;5012336;28;21020;-48
2023/01/13 07:16:06;;;;;;;37.60;34.10;;;;;;;6.89;100.00;99562.34;5011837;28;20439;-48
2023/01/13 07:18:35;;;;;;;37.03;33.67;;;;;;;6.91;100.00;99561.13;5011860;28;20499;-44
2023/01/13 07:21:06;;;;;;;39.23;34.70;;;;;;;6.96;100.00;99569.28;5012136;28;20452;-44
2023/01/13 07:23:36;;;;;;;37.50;34.00;;;;;;;6.98;100.00;99550.53;5011803;28;20871;-44
2023/01/13 07:26:04;;;;;;;38.90;35.10;;;;;;;7.00;100.00;99551.16;5012154;28;20433;-45
2023/01/13 07:28:33;;;;;;;38.63;34.87;;;;;;;7.02;100.00;99557.88;5011847;28;20433;-46
2023/01/13 07:31:00;;;;;;;37.60;34.27;;;;;;;7.03;100.00;99550.75;5011846;28;20970;-44
2023/01/13 07:33:31;;;;;;;36.83;33.67;;;;;;;7.06;100.00;99559.09;4997203;28;20465;-46
2023/01/13 07:36:01;;;;;;;38.60;33.37;;;;;;;7.06;100.00;99561.75;5011488;28;20499;-47
2023/01/13 07:38:31;;;;;;;36.40;33.00;;;;;;;7.07;100.00;99559.94;5006190;28;20470;-46
2023/01/13 07:43:30;;;;;;;37.27;34.07;;;;;;;7.09;100.00;99566.66;5009564;28;20463;-46
2023/01/13 07:43:47;;;;;;;41.53;31.93;;;;;;;7.11;100.00;99569.91;5011462;28;20445;-46
2023/01/13 07:46:15;;;;;;;37.33;33.90;;;;;;;7.12;100.00;99560.13;4988319;28;20460;-43
2023/01/13 07:48:43;;;;;;;37.20;33.60;;;;;;;7.12;100.00;99550.34;5011845;28;20429;-45
2023/01/13 07:51:12;;;;;;;35.40;32.23;;;;;;;7.12;100.00;99542.41;5011886;28;20455;-43
2023/01/13 07:53:40;;;;;;;34.07;30.90;;;;;;;7.17;100.00;99547.06;5011983;28;20480;-45
2023/01/13 07:56:08;;;;;;;34.47;31.47;;;;;;;7.18;100.00;99548.72;5010864;28;20465;-44
2023/01/13 07:58:37;;;;;;;36.40;32.90;;;;;;;7.15;100.00;99539.34;5011222;28;20560;-45
2023/01/13 08:01:07;;;;;;;38.00;34.00;;;;;;;7.18;100.00;99544.22;5011712;28;20445;-45
2023/01/13 08:03:35;;;;;;;35.53;32.13;;;;;;;7.22;100.00;99545.47;5011698;28;20433;-44
2023/01/13 08:06:03;;;;;;;34.30;31.37;;;;;;;7.24;100.00;99545.25;5011388;28;20465;-43
2023/01/13 08:08:31;;;;;;;35.63;32.13;;;;;;;7.26;100.00;99551.16;5011511;28;20430;-43
2023/01/13 08:11:01;;;;;;;35.63;32.50;;;;;;;7.27;100.00;99539.53;5011055;28;20450;-46
2023/01/13 08:13:29;;;;;;;35.10;32.70;;;;;;;7.28;100.00;99550.97;5011790;28;20444;-49
2023/01/13 08:16:00;;;;;;;35.07;31.53;;;;;;;7.31;100.00;99555.88;5010922;28;20458;-44
2023/01/13 08:18:28;;;;;;;41.20;32.00;;;;;;;7.36;100.00;99553.41;5011551;28;20473;-45
2023/01/13 08:20:56;;;;;;;34.80;31.30;;;;;;;7.38;100.00;99562.00;5011346;28;20453;-46
2023/01/13 08:23:24;;;;;;;34.13;31.60;;;;;;;7.41;100.00;99542.97;5011368;28;20432;-44
2023/01/13 08:25:51;;;;;;;34.30;31.70;;;;;;;7.42;100.00;99541.97;5010932;28;20468;-44
2023/01/13 08:28:22;;;;;;;35.27;32.10;;;;;;;7.40;100.00;99549.34;5011937;28;20429;-46
2023/01/13 08:30:51;;;;;;;34.10;31.10;;;;;;;7.47;100.00;99548.28;5007900;28;20520;-44
2023/01/13 08:33:20;;;;;;;35.97;31.00;;;;;;;7.55;100.00;99549.94;4979781;28;20464;-44
2023/01/13 08:35:51;;;;;;;35.90;32.57;;;;;;;7.57;100.00;99547.88;5001491;28;20460;-44
2023/01/13 08:38:19;;;;;;;43.40;32.07;;;;;;;7.62;100.00;99556.03;5001599;28;21049;-43
2023/01/13 08:40:46;;;;;;;35.57;31.87;;;;;;;7.66;100.00;99541.34;5002614;28;20555;-44
2023/01/13 08:43:14;;;;;;;35.63;32.20;;;;;;;7.69;100.00;99528.47;5009597;28;20799;-45
2023/01/13 08:45:43;;;;;;;35.03;31.83;;;;;;;7.73;100.00;99542.97;5014126;28;21007;-49
2023/01/13 08:48:11;;;;;;;34.80;31.30;;;;;;;7.75;100.00;99548.88;5014985;28;20934;-43
2023/01/13 08:50:39;;;;;;;34.40;31.50;;;;;;;7.77;100.00;99541.53;5015116;28;20437;-43
2023/01/13 08:53:07;;;;;;;35.53;32.00;;;;;;;7.78;100.00;99553.78;5015173;28;21110;-43
2023/01/13 08:55:35;;;;;;;33.53;30.90;;;;;;;7.76;100.00;99552.34;5014466;28;20465;-46
2023/01/13 08:58:03;;;;;;;34.40;31.10;;;;;;;7.74;100.00;99557.84;5014488;28;20473;-43
2023/01/13 09:00:44;;;;;;;33.83;31.30;;;;;;;7.68;100.00;99560.50;5014728;28;20795;-43
2023/01/13 09:03:12;;;;;;;35.10;31.70;;;;;;;7.68;100.00;99557.84;5015123;28;20432;-47
2023/01/13 09:05:39;;;;;;;33.70;30.50;;;;;;;7.63;100.00;99565.63;5014396;28;20461;-44
2023/01/13 09:08:07;;;;;;;33.60;30.83;;;;;;;7.59;100.00;99561.75;5015035;28;20795;-43
2023/01/13 09:10:35;;;;;;;35.63;31.83;;;;;;;7.59;100.00;99565.22;5015000;28;20455;-45
2023/01/13 09:13:11;;;;;;;31.40;28.80;;;;;;;7.48;100.00;99541.16;5014613;28;20437;-44
2023/01/13 09:15:40;;;;;;;31.43;28.90;;;;;;;7.42;100.00;99565.84;5014112;28;20464;-46
2023/01/13 09:18:09;;;;;;;31.63;28.97;;;;;;;7.37;100.00;99563.00;5014811;28;20832;-45
2023/01/13 09:20:37;;;;;;;30.27;27.63;;;;;;;7.31;100.00;99575.25;5014111;28;20433;-45
2023/01/13 09:23:06;;;;;;;31.13;28.93;;;;;;;7.26;100.00;99574.22;5014630;28;20448;-43
2023/01/13 09:25:37;;;;;;;32.80;29.90;;;;;;;7.25;100.00;99578.72;5014114;28;20958;-44
2023/01/13 09:28:06;;;;;;;32.93;29.47;;;;;;;7.20;100.00;99571.34;5014595;28;20514;-44
2023/01/13 09:30:34;;;;;;;34.10;31.03;;;;;;;7.21;100.00;99578.28;5014702;28;20457;-43
2023/01/13 09:35:48;;;;;;;34.23;31.00;;;;;;;7.22;100.00;99566.69;5013745;28;21021;-43
2023/01/13 09:38:16;;;;;;;33.13;29.80;;;;;;;7.30;100.00;99564.81;5006097;28;20541;-44
2023/01/13 09:40:47;;;;;;;31.50;29.30;;;;;;;7.32;100.00;99565.47;5005833;28;20467;-44
2023/01/13 09:46:42;;;;;;;32.10;29.37;;;;;;;7.38;100.00;99562.00;5013868;28;20467;-49
2023/01/13 09:48:59;;;;;;;32.93;30.13;;;;;;;7.39;100.00;99564.44;5014018;28;20452;-46
2023/01/13 09:51:33;;;;;;;33.93;31.03;;;;;;;7.44;100.00;99563.78;5014272;28;20445;-48
2023/01/13 09:54:06;;;;;;;33.77;31.10;;;;;;;7.41;100.00;99551.75;5013878;28;20443;-48
2023/01/13 09:56:34;;;;;;;34.63;30.80;;;;;;;7.42;100.00;99553.41;5013463;28;20468;-46
2023/01/13 09:59:01;;;;;;;33.63;30.33;;;;;;;7.46;100.00;99548.50;5013732;28;20477;-48
2023/01/13 10:01:37;;;;;;;31.40;29.00;;;;;;;7.56;100.00;99551.53;5013798;28;20457;-45
2023/01/13 10:04:10;;;;;;;30.50;28.23;;;;;;;7.63;100.00;99547.88;5013597;28;20957;-44
2023/01/13 10:06:41;;;;;;;32.40;29.30;;;;;;;7.68;100.00;99534.81;5013016;28;20465;-46
2023/01/13 10:09:14;;;;;;;32.47;29.70;;;;;;;7.77;100.00;99524.78;5013620;28;20469;-49
2023/01/13 10:14:37;;;;;;;32.30;29.63;;;;;;;7.84;100.00;99525.59;5012774;28;20436;-43
2023/01/13 10:17:11;;;;;;;33.73;30.40;;;;;;;7.89;100.00;99539.03;5013610;28;20442;-43
2023/01/13 10:19:44;;;;;;;32.90;30.30;;;;;;;7.86;100.00;99520.88;5013307;28;20468;-43
2023/01/13 10:22:42;;;;;;;32.20;29.70;;;;;;;7.86;100.00;99523.53;5013759;28;20453;-43
2023/01/13 10:25:22;;;;;;;31.70;29.60;;;;;;;7.80;100.00;99530.50;5013220;28;20468;-45
2023/01/13 10:27:52;;;;;;;31.20;28.87;;;;;;;7.75;100.00;99513.56;5013055;28;20437;-43
2023/01/13 10:30:26;;;;;;;31.83;29.53;;;;;;;7.76;100.00;99523.94;5013107;28;20429;-44
2023/01/13 10:32:56;;;;;;;31.57;29.30;;;;;;;7.73;100.00;99523.59;5013434;28;20429;-44
2023/01/13 10:35:53;;;;;;;32.57;30.20;;;;;;;7.72;100.00;99516.63;5012748;28;20457;-44
2023/01/13 10:38:24;;;;;;;31.50;29.30;;;;;;;7.68;100.00;99502.13;5004787;28;20433;-44
2023/01/13 10:40:54;;;;;;;32.87;30.40;;;;;;;7.65;100.00;99510.50;5004748;28;21226;-43
2023/01/13 10:43:23;;;;;;;31.33;29.23;;;;;;;7.64;100.00;99519.50;5013404;28;20439;-45
2023/01/13 10:46:03;;;;;;;32.50;29.87;;;;;;;7.65;100.00;99499.91;5012519;28;20465;-46
2023/01/13 10:48:40;;;;;;;31.80;29.63;;;;;;;7.59;100.00;99503.38;5012964;28;20456;-43
2023/01/13 10:51:18;;;;;;;33.43;30.40;;;;;;;7.58;100.00;99515.03;5012926;28;20455;-49
2023/01/13 10:53:51;;;;;;;33.40;30.20;;;;;;;7.57;100.00;99508.91;5012601;28;20432;-44
2023/01/13 10:56:22;;;;;;;32.13;29.50;;;;;;;7.48;100.00;99504.03;5012019;28;20461;-46
2023/01/13 10:58:50;;;;;;;34.03;31.10;;;;;;;7.49;100.00;99511.78;5011902;28;20469;-45
2023/01/13 11:01:24;;;;;;;33.13;30.80;;;;;;;7.51;100.00;99508.91;5010273;28;20453;-43
2023/01/13 11:03:54;;;;;;;34.07;31.50;;;;;;;7.45;100.00;99523.00;5012828;28;20523;-43
2023/01/13 11:06:24;;;;;;;32.80;30.57;;;;;;;7.38;100.00;99524.88;5011726;28;20553;-44
2023/01/13 11:08:57;;;;;;;33.13;30.30;;;;;;;7.37;100.00;99521.38;5012600;28;20429;-44
2023/01/13 11:11:39;;;;;;;32.97;30.10;;;;;;;7.35;100.00;99538.53;5012488;28;20453;-43
2023/01/13 11:17:09;;;;;;;33.33;30.23;;;;;;;7.20;100.00;99528.94;5012546;28;20467;-45
2023/01/13 11:19:42;;;;;;;31.83;29.00;;;;;;;7.23;100.00;99538.31;5012349;28;20472;-45
2023/01/13 11:22:16;;;;;;;33.90;30.70;;;;;;;7.18;100.00;99525.69;5011868;28;20453;-44
2023/01/13 11:24:52;;;;;;;32.17;29.50;;;;;;;7.17;100.00;99525.84;5011999;28;20449;-43
2023/01/13 11:27:26;;;;;;;31.03;28.50;;;;;;;7.13;100.00;99533.44;5012315;28;20842;-45
2023/01/13 11:30:08;;;;;;;32.80;29.70;;;;;;;7.07;100.00;99534.25;5011801;28;20425;-45
2023/01/13 11:32:44;;;;;;;30.80;28.40;;;;;;;7.05;100.00;99528.31;5011949;28;20464;-44
2023/01/13 11:35:18;;;;;;;29.60;27.70;;;;;;;6.99;100.00;99525.69;5011369;28;20468;-44
2023/01/13 11:37:50;;;;;;;32.10;29.70;;;;;;;7.00;100.00;99530.75;4997709;28;20493;-43
2023/01/13 11:40:25;;;;;;;30.43;28.40;;;;;;;7.00;100.00;99529.94;4992383;28;20476;-45
2023/01/13 11:43:01;;;;;;;31.57;28.70;;;;;;;7.01;100.00;99534.22;4991954;28;20438;-43
2023/01/13 11:45:36;;;;;;;31.90;28.90;;;;;;;6.98;100.00;99516.91;4991938;28;20835;-46
2023/01/13 11:48:04;;;;;;;31.43;28.90;;;;;;;6.98;100.00;99530.16;4992501;28;20438;-43
2023/01/13 11:50:36;;;;;;;32.90;29.00;;;;;;;7.01;100.00;99524.44;4992292;28;20430;-48
2023/01/13 11:53:18;;;;;;;30.73;27.97;;;;;;;7.04;100.00;99529.34;4992205;28;20438;-46
2023/01/13 11:55:56;;;;;;;31.90;29.37;;;;;;;7.06;100.00;99531.78;4991358;28;20465;-50
2023/01/13 11:58:39;;;;;;;30.33;28.03;;;;;;;7.07;100.00;99520.16;4991814;28;20438;-43
2023/01/13 12:01:33;;;;;;;30.90;28.30;;;;;;;7.04;100.00;99545.25;4992462;28;20446;-45
2023/01/13 12:04:17;;;;;;;32.43;29.30;;;;;;;7.05;100.00;99536.25;4991988;28;20438;-47
2023/01/13 12:06:46;;;;;;;32.53;29.23;;;;;;;7.13;100.00;99525.47;4991724;28;20468;-43
2023/01/13 12:09:26;;;;;;;30.93;28.50;;;;;;;7.25;100.00;99549.53;4992233;28;20422;-45
2023/01/13 12:12:19;;;;;;;29.57;27.67;;;;;;;7.29;100.00;99518.94;4991706;28;20989;-44